sensor_id;sensor_type;location;lat;lon;timestamp;P1;durP1;ratioP1;P2;durP2;ratioP2
39502;SDS011;26970;49.900;10.774;2023-05-07T00:01:41;5.15;;;3.83;;
39502;SDS011;26970;49.900;10.774;2023-05-07T00:04:06;6.63;;;4.55;;
39502;SDS011;26970;49.900;10.774;2023-05-07T00:06:32;7.03;;;4.45;;
39502;SDS011;26970;49.900;10.774;2023-05-07T00:08:58;6.05;;;4.25;;
39502;SDS011;26970;49.900;10.774;2023-05-07T00:11:25;6.93;;;4.18;;
39502;SDS011;26970;49.900;10.774;2023-05-07T00:13:52;5.82;;;4.45;;
39502;SDS011;26970;49.900;10.774;2023-05-07T00:16:18;9.27;;;4.90;;
39502;SDS011;26970;49.900;10.774;2023-05-07T00:18:43;8.25;;;4.50;;
39502;SDS011;26970;49.900;10.774;2023-05-07T00:21:10;7.15;;;4.68;;
39502;SDS011;26970;49.900;10.774;2023-05-07T00:23:35;8.35;;;4.50;;
39502;SDS011;26970;49.900;10.774;2023-05-07T00:26:01;7.53;;;5.15;;
39502;SDS011;26970;49.900;10.774;2023-05-07T00:28:27;7.65;;;4.93;;
39502;SDS011;26970;49.900;10.774;2023-05-07T00:30:53;9.52;;;5.18;;
39502;SDS011;26970;49.900;10.774;2023-05-07T00:33:18;7.10;;;4.78;;
39502;SDS011;26970;49.900;10.774;2023-05-07T00:35:45;6.45;;;4.90;;
39502;SDS011;26970;49.900;10.774;2023-05-07T00:38:11;7.90;;;5.10;;
39502;SDS011;26970;49.900;10.774;2023-05-07T00:40:37;6.88;;;5.60;;
39502;SDS011;26970;49.900;10.774;2023-05-07T00:43:02;7.55;;;5.20;;
39502;SDS011;26970;49.900;10.774;2023-05-07T00:45:28;7.88;;;5.60;;
39502;SDS011;26970;49.900;10.774;2023-05-07T00:47:55;6.78;;;5.50;;
39502;SDS011;26970;49.900;10.774;2023-05-07T00:50:22;7.60;;;6.00;;
39502;SDS011;26970;49.900;10.774;2023-05-07T00:52:48;8.88;;;5.55;;
39502;SDS011;26970;49.900;10.774;2023-05-07T00:55:13;7.78;;;6.22;;
39502;SDS011;26970;49.900;10.774;2023-05-07T00:57:40;8.13;;;6.05;;
39502;SDS011;26970;49.900;10.774;2023-05-07T01:00:06;8.02;;;5.88;;
39502;SDS011;26970;49.900;10.774;2023-05-07T01:02:34;9.07;;;6.07;;
39502;SDS011;26970;49.900;10.774;2023-05-07T01:05:00;8.43;;;6.93;;
39502;SDS011;26970;49.900;10.774;2023-05-07T01:07:28;8.73;;;6.35;;
39502;SDS011;26970;49.900;10.774;2023-05-07T01:09:54;7.65;;;6.28;;
39502;SDS011;26970;49.900;10.774;2023-05-07T01:12:20;9.38;;;6.72;;
39502;SDS011;26970;49.900;10.774;2023-05-07T01:14:46;10.48;;;6.40;;
39502;SDS011;26970;49.900;10.774;2023-05-07T01:17:14;9.65;;;6.40;;
39502;SDS011;26970;49.900;10.774;2023-05-07T01:19:40;8.43;;;6.40;;
39502;SDS011;26970;49.900;10.774;2023-05-07T01:22:09;9.32;;;6.63;;
39502;SDS011;26970;49.900;10.774;2023-05-07T01:24:36;8.35;;;6.35;;
39502;SDS011;26970;49.900;10.774;2023-05-07T01:27:02;7.43;;;6.63;;
39502;SDS011;26970;49.900;10.774;2023-05-07T01:29:28;10.23;;;6.70;;
39502;SDS011;26970;49.900;10.774;2023-05-07T01:31:54;8.55;;;6.03;;
39502;SDS011;26970;49.900;10.774;2023-05-07T01:34:23;7.88;;;6.28;;
39502;SDS011;26970;49.900;10.774;2023-05-07T01:36:52;8.55;;;6.80;;
39502;SDS011;26970;49.900;10.774;2023-05-07T01:39:21;7.55;;;6.00;;
39502;SDS011;26970;49.900;10.774;2023-05-07T01:41:48;7.38;;;6.38;;
39502;SDS011;26970;49.900;10.774;2023-05-07T01:44:14;8.40;;;6.65;;
39502;SDS011;26970;49.900;10.774;2023-05-07T01:46:41;8.48;;;6.65;;
39502;SDS011;26970;49.900;10.774;2023-05-07T01:49:07;7.38;;;6.07;;
39502;SDS011;26970;49.900;10.774;2023-05-07T01:51:33;9.38;;;6.13;;
39502;SDS011;26970;49.900;10.774;2023-05-07T01:53:59;8.60;;;6.25;;
39502;SDS011;26970;49.900;10.774;2023-05-07T01:56:25;13.73;;;6.82;;
39502;SDS011;26970;49.900;10.774;2023-05-07T02:02:13;8.85;;;7.10;;
39502;SDS011;26970;49.900;10.774;2023-05-07T02:04:38;9.88;;;7.50;;
39502;SDS011;26970;49.900;10.774;2023-05-07T02:07:04;7.18;;;6.15;;
39502;SDS011;26970;49.900;10.774;2023-05-07T02:09:30;9.55;;;6.60;;
39502;SDS011;26970;49.900;10.774;2023-05-07T02:11:55;7.03;;;6.20;;
39502;SDS011;26970;49.900;10.774;2023-05-07T02:14:21;11.95;;;7.07;;
39502;SDS011;26970;49.900;10.774;2023-05-07T02:16:46;9.23;;;6.60;;
39502;SDS011;26970;49.900;10.774;2023-05-07T02:19:12;6.47;;;5.63;;
39502;SDS011;26970;49.900;10.774;2023-05-07T02:21:38;8.60;;;5.90;;
39502;SDS011;26970;49.900;10.774;2023-05-07T02:24:03;9.07;;;6.30;;
39502;SDS011;26970;49.900;10.774;2023-05-07T02:26:29;9.32;;;7.18;;
39502;SDS011;26970;49.900;10.774;2023-05-07T02:28:55;9.52;;;7.05;;
39502;SDS011;26970;49.900;10.774;2023-05-07T02:31:20;10.25;;;7.43;;
39502;SDS011;26970;49.900;10.774;2023-05-07T02:33:46;10.77;;;7.60;;
39502;SDS011;26970;49.900;10.774;2023-05-07T02:36:12;10.90;;;7.78;;
39502;SDS011;26970;49.900;10.774;2023-05-07T02:38:37;9.98;;;8.15;;
39502;SDS011;26970;49.900;10.774;2023-05-07T02:41:03;10.18;;;7.60;;
39502;SDS011;26970;49.900;10.774;2023-05-07T02:43:29;8.55;;;7.65;;
39502;SDS011;26970;49.900;10.774;2023-05-07T02:46:04;9.10;;;7.95;;
39502;SDS011;26970;49.900;10.774;2023-05-07T02:48:31;9.85;;;8.45;;
39502;SDS011;26970;49.900;10.774;2023-05-07T02:50:58;9.82;;;8.18;;
39502;SDS011;26970;49.900;10.774;2023-05-07T02:53:24;10.45;;;9.00;;
39502;SDS011;26970;49.900;10.774;2023-05-07T02:55:56;10.27;;;8.85;;
39502;SDS011;26970;49.900;10.774;2023-05-07T02:58:23;10.60;;;8.80;;
39502;SDS011;26970;49.900;10.774;2023-05-07T03:00:48;12.60;;;9.70;;
39502;SDS011;26970;49.900;10.774;2023-05-07T03:03:14;13.15;;;9.93;;
39502;SDS011;26970;49.900;10.774;2023-05-07T03:05:40;12.57;;;9.35;;
39502;SDS011;26970;49.900;10.774;2023-05-07T03:08:06;13.75;;;10.55;;
39502;SDS011;26970;49.900;10.774;2023-05-07T03:10:32;14.43;;;10.50;;
39502;SDS011;26970;49.900;10.774;2023-05-07T03:12:58;12.68;;;10.80;;
39502;SDS011;26970;49.900;10.774;2023-05-07T03:15:24;13.18;;;10.75;;
39502;SDS011;26970;49.900;10.774;2023-05-07T03:17:49;12.63;;;11.13;;
39502;SDS011;26970;49.900;10.774;2023-05-07T03:20:15;14.00;;;10.90;;
39502;SDS011;26970;49.900;10.774;2023-05-07T03:22:40;16.80;;;11.90;;
39502;SDS011;26970;49.900;10.774;2023-05-07T03:25:06;12.30;;;9.82;;
39502;SDS011;26970;49.900;10.774;2023-05-07T03:27:33;13.10;;;10.73;;
39502;SDS011;26970;49.900;10.774;2023-05-07T03:29:59;12.75;;;10.23;;
39502;SDS011;26970;49.900;10.774;2023-05-07T03:32:25;13.05;;;10.60;;
39502;SDS011;26970;49.900;10.774;2023-05-07T03:34:51;13.48;;;10.65;;
39502;SDS011;26970;49.900;10.774;2023-05-07T03:37:17;12.88;;;10.48;;
39502;SDS011;26970;49.900;10.774;2023-05-07T03:39:43;13.38;;;10.63;;
39502;SDS011;26970;49.900;10.774;2023-05-07T03:42:09;11.15;;;9.77;;
39502;SDS011;26970;49.900;10.774;2023-05-07T03:44:35;14.23;;;10.50;;
39502;SDS011;26970;49.900;10.774;2023-05-07T03:47:01;14.20;;;10.38;;
39502;SDS011;26970;49.900;10.774;2023-05-07T03:49:27;13.10;;;10.32;;
39502;SDS011;26970;49.900;10.774;2023-05-07T03:51:53;13.00;;;9.90;;
39502;SDS011;26970;49.900;10.774;2023-05-07T03:54:18;11.75;;;10.48;;
39502;SDS011;26970;49.900;10.774;2023-05-07T03:56:44;11.68;;;10.05;;
39502;SDS011;26970;49.900;10.774;2023-05-07T03:59:09;12.98;;;10.90;;
39502;SDS011;26970;49.900;10.774;2023-05-07T04:01:35;15.32;;;11.75;;
39502;SDS011;26970;49.900;10.774;2023-05-07T04:04:01;15.60;;;11.98;;
39502;SDS011;26970;49.900;10.774;2023-05-07T04:06:26;14.90;;;11.63;;
39502;SDS011;26970;49.900;10.774;2023-05-07T04:08:52;16.48;;;12.23;;
39502;SDS011;26970;49.900;10.774;2023-05-07T04:11:18;17.65;;;12.82;;
39502;SDS011;26970;49.900;10.774;2023-05-07T04:13:43;14.98;;;12.43;;
39502;SDS011;26970;49.900;10.774;2023-05-07T04:16:09;20.15;;;13.60;;
39502;SDS011;26970;49.900;10.774;2023-05-07T04:18:35;14.98;;;12.10;;
39502;SDS011;26970;49.900;10.774;2023-05-07T04:21:00;14.75;;;12.23;;
39502;SDS011;26970;49.900;10.774;2023-05-07T04:23:26;16.15;;;11.63;;
39502;SDS011;26970;49.900;10.774;2023-05-07T04:25:51;15.07;;;12.27;;
39502;SDS011;26970;49.900;10.774;2023-05-07T04:28:17;17.00;;;12.15;;
39502;SDS011;26970;49.900;10.774;2023-05-07T04:30:43;15.32;;;12.80;;
39502;SDS011;26970;49.900;10.774;2023-05-07T04:33:08;16.98;;;12.23;;
39502;SDS011;26970;49.900;10.774;2023-05-07T04:35:35;17.48;;;12.93;;
39502;SDS011;26970;49.900;10.774;2023-05-07T04:38:00;14.95;;;11.75;;
39502;SDS011;26970;49.900;10.774;2023-05-07T04:40:26;16.20;;;12.00;;
39502;SDS011;26970;49.900;10.774;2023-05-07T04:42:52;14.02;;;11.27;;
39502;SDS011;26970;49.900;10.774;2023-05-07T04:45:18;12.65;;;10.82;;
39502;SDS011;26970;49.900;10.774;2023-05-07T04:47:43;14.07;;;11.27;;
39502;SDS011;26970;49.900;10.774;2023-05-07T04:50:09;11.73;;;10.10;;
39502;SDS011;26970;49.900;10.774;2023-05-07T04:52:35;12.88;;;10.60;;
39502;SDS011;26970;49.900;10.774;2023-05-07T04:55:01;15.95;;;11.90;;
39502;SDS011;26970;49.900;10.774;2023-05-07T04:57:27;12.75;;;10.43;;
39502;SDS011;26970;49.900;10.774;2023-05-07T04:59:53;16.75;;;12.27;;
39502;SDS011;26970;49.900;10.774;2023-05-07T05:02:19;13.35;;;11.60;;
39502;SDS011;26970;49.900;10.774;2023-05-07T05:04:44;15.02;;;12.00;;
39502;SDS011;26970;49.900;10.774;2023-05-07T05:07:10;13.88;;;10.30;;
39502;SDS011;26970;49.900;10.774;2023-05-07T05:09:36;14.02;;;10.65;;
39502;SDS011;26970;49.900;10.774;2023-05-07T05:12:01;17.30;;;11.75;;
39502;SDS011;26970;49.900;10.774;2023-05-07T05:14:27;15.70;;;11.98;;
39502;SDS011;26970;49.900;10.774;2023-05-07T05:16:53;15.45;;;11.23;;
39502;SDS011;26970;49.900;10.774;2023-05-07T05:19:18;14.05;;;11.65;;
39502;SDS011;26970;49.900;10.774;2023-05-07T05:21:44;14.18;;;11.90;;
39502;SDS011;26970;49.900;10.774;2023-05-07T05:24:10;15.45;;;11.57;;
39502;SDS011;26970;49.900;10.774;2023-05-07T05:26:35;15.32;;;11.48;;
39502;SDS011;26970;49.900;10.774;2023-05-07T05:29:01;13.23;;;11.23;;
39502;SDS011;26970;49.900;10.774;2023-05-07T05:31:26;14.00;;;11.35;;
39502;SDS011;26970;49.900;10.774;2023-05-07T05:33:52;17.42;;;11.85;;
39502;SDS011;26970;49.900;10.774;2023-05-07T05:36:18;14.50;;;11.50;;
39502;SDS011;26970;49.900;10.774;2023-05-07T05:38:43;15.20;;;11.90;;
39502;SDS011;26970;49.900;10.774;2023-05-07T05:41:09;14.65;;;12.07;;
39502;SDS011;26970;49.900;10.774;2023-05-07T05:43:35;15.05;;;11.43;;
39502;SDS011;26970;49.900;10.774;2023-05-07T05:46:01;14.07;;;10.98;;
39502;SDS011;26970;49.900;10.774;2023-05-07T05:48:26;16.88;;;9.55;;
39502;SDS011;26970;49.900;10.774;2023-05-07T05:50:53;12.85;;;10.20;;
39502;SDS011;26970;49.900;10.774;2023-05-07T05:53:19;13.15;;;10.07;;
39502;SDS011;26970;49.900;10.774;2023-05-07T05:55:45;14.20;;;11.25;;
39502;SDS011;26970;49.900;10.774;2023-05-07T05:58:11;16.48;;;12.73;;
39502;SDS011;26970;49.900;10.774;2023-05-07T06:00:37;13.30;;;10.82;;
39502;SDS011;26970;49.900;10.774;2023-05-07T06:03:02;14.80;;;11.57;;
39502;SDS011;26970;49.900;10.774;2023-05-07T06:05:28;15.00;;;11.77;;
39502;SDS011;26970;49.900;10.774;2023-05-07T06:07:54;16.30;;;11.93;;
39502;SDS011;26970;49.900;10.774;2023-05-07T06:10:19;16.33;;;12.43;;
39502;SDS011;26970;49.900;10.774;2023-05-07T06:12:45;17.70;;;12.25;;
39502;SDS011;26970;49.900;10.774;2023-05-07T06:15:10;13.95;;;12.23;;
39502;SDS011;26970;49.900;10.774;2023-05-07T06:17:36;16.80;;;12.10;;
39502;SDS011;26970;49.900;10.774;2023-05-07T06:20:02;15.25;;;11.88;;
39502;SDS011;26970;49.900;10.774;2023-05-07T06:22:28;15.60;;;12.30;;
39502;SDS011;26970;49.900;10.774;2023-05-07T06:24:53;14.27;;;12.10;;
39502;SDS011;26970;49.900;10.774;2023-05-07T06:27:19;15.05;;;12.00;;
39502;SDS011;26970;49.900;10.774;2023-05-07T06:29:45;17.08;;;12.45;;
39502;SDS011;26970;49.900;10.774;2023-05-07T06:32:11;14.85;;;11.05;;
39502;SDS011;26970;49.900;10.774;2023-05-07T06:34:38;14.05;;;11.02;;
39502;SDS011;26970;49.900;10.774;2023-05-07T06:37:04;14.30;;;10.80;;
39502;SDS011;26970;49.900;10.774;2023-05-07T06:39:31;15.27;;;11.00;;
39502;SDS011;26970;49.900;10.774;2023-05-07T06:41:57;14.50;;;11.60;;
39502;SDS011;26970;49.900;10.774;2023-05-07T06:44:23;12.35;;;9.35;;
39502;SDS011;26970;49.900;10.774;2023-05-07T06:46:48;15.30;;;9.68;;
39502;SDS011;26970;49.900;10.774;2023-05-07T06:49:14;12.70;;;9.80;;
39502;SDS011;26970;49.900;10.774;2023-05-07T06:51:40;11.68;;;9.45;;
39502;SDS011;26970;49.900;10.774;2023-05-07T06:54:05;13.15;;;9.07;;
39502;SDS011;26970;49.900;10.774;2023-05-07T06:56:32;11.85;;;10.07;;
39502;SDS011;26970;49.900;10.774;2023-05-07T06:58:59;12.77;;;10.27;;
39502;SDS011;26970;49.900;10.774;2023-05-07T07:01:25;13.40;;;10.20;;
39502;SDS011;26970;49.900;10.774;2023-05-07T07:03:51;11.25;;;9.40;;
39502;SDS011;26970;49.900;10.774;2023-05-07T07:06:16;12.35;;;8.43;;
39502;SDS011;26970;49.900;10.774;2023-05-07T07:08:42;12.00;;;8.70;;
39502;SDS011;26970;49.900;10.774;2023-05-07T07:11:08;11.98;;;9.05;;
39502;SDS011;26970;49.900;10.774;2023-05-07T07:13:34;11.77;;;9.23;;
39502;SDS011;26970;49.900;10.774;2023-05-07T07:16:00;14.90;;;10.20;;
39502;SDS011;26970;49.900;10.774;2023-05-07T07:18:25;10.90;;;9.10;;
39502;SDS011;26970;49.900;10.774;2023-05-07T07:20:51;12.18;;;8.70;;
39502;SDS011;26970;49.900;10.774;2023-05-07T07:23:17;13.43;;;9.45;;
39502;SDS011;26970;49.900;10.774;2023-05-07T07:25:42;12.10;;;9.77;;
39502;SDS011;26970;49.900;10.774;2023-05-07T07:28:08;11.82;;;9.30;;
39502;SDS011;26970;49.900;10.774;2023-05-07T07:30:33;11.20;;;9.68;;
39502;SDS011;26970;49.900;10.774;2023-05-07T07:32:59;12.10;;;9.98;;
39502;SDS011;26970;49.900;10.774;2023-05-07T07:35:30;11.48;;;9.20;;
39502;SDS011;26970;49.900;10.774;2023-05-07T07:37:57;11.35;;;9.18;;
39502;SDS011;26970;49.900;10.774;2023-05-07T07:40:23;14.20;;;9.63;;
39502;SDS011;26970;49.900;10.774;2023-05-07T07:42:49;12.82;;;9.85;;
39502;SDS011;26970;49.900;10.774;2023-05-07T07:45:15;13.45;;;10.15;;
39502;SDS011;26970;49.900;10.774;2023-05-07T07:47:41;10.82;;;8.98;;
39502;SDS011;26970;49.900;10.774;2023-05-07T07:50:07;11.95;;;9.23;;
39502;SDS011;26970;49.900;10.774;2023-05-07T07:52:34;12.32;;;9.57;;
39502;SDS011;26970;49.900;10.774;2023-05-07T07:55:00;12.23;;;9.70;;
39502;SDS011;26970;49.900;10.774;2023-05-07T07:57:26;12.50;;;9.13;;
39502;SDS011;26970;49.900;10.774;2023-05-07T07:59:52;11.40;;;8.52;;
39502;SDS011;26970;49.900;10.774;2023-05-07T08:02:17;11.07;;;8.63;;
39502;SDS011;26970;49.900;10.774;2023-05-07T08:04:43;16.10;;;9.32;;
39502;SDS011;26970;49.900;10.774;2023-05-07T08:07:09;12.32;;;9.30;;
39502;SDS011;26970;49.900;10.774;2023-05-07T08:09:35;10.90;;;8.57;;
39502;SDS011;26970;49.900;10.774;2023-05-07T08:12:02;10.05;;;8.57;;
39502;SDS011;26970;49.900;10.774;2023-05-07T08:14:28;11.32;;;9.40;;
39502;SDS011;26970;49.900;10.774;2023-05-07T08:16:54;13.23;;;8.63;;
39502;SDS011;26970;49.900;10.774;2023-05-07T08:19:19;13.93;;;8.40;;
39502;SDS011;26970;49.900;10.774;2023-05-07T08:21:46;11.35;;;8.60;;
39502;SDS011;26970;49.900;10.774;2023-05-07T08:24:13;11.05;;;8.02;;
39502;SDS011;26970;49.900;10.774;2023-05-07T08:26:39;10.65;;;8.68;;
39502;SDS011;26970;49.900;10.774;2023-05-07T08:29:05;10.45;;;7.60;;
39502;SDS011;26970;49.900;10.774;2023-05-07T08:31:31;10.10;;;8.27;;
39502;SDS011;26970;49.900;10.774;2023-05-07T08:33:59;10.10;;;7.50;;
39502;SDS011;26970;49.900;10.774;2023-05-07T08:36:25;9.32;;;7.63;;
39502;SDS011;26970;49.900;10.774;2023-05-07T08:38:51;9.38;;;8.18;;
39502;SDS011;26970;49.900;10.774;2023-05-07T08:41:17;9.73;;;8.00;;
39502;SDS011;26970;49.900;10.774;2023-05-07T08:43:45;11.60;;;7.15;;
39502;SDS011;26970;49.900;10.774;2023-05-07T08:46:13;9.75;;;8.23;;
39502;SDS011;26970;49.900;10.774;2023-05-07T08:48:43;10.23;;;8.98;;
39502;SDS011;26970;49.900;10.774;2023-05-07T08:51:12;9.43;;;7.60;;
39502;SDS011;26970;49.900;10.774;2023-05-07T08:53:41;10.23;;;7.93;;
39502;SDS011;26970;49.900;10.774;2023-05-07T08:56:10;9.43;;;7.53;;
39502;SDS011;26970;49.900;10.774;2023-05-07T08:58:37;12.07;;;7.93;;
39502;SDS011;26970;49.900;10.774;2023-05-07T09:01:03;9.68;;;7.93;;
39502;SDS011;26970;49.900;10.774;2023-05-07T09:03:36;10.98;;;8.35;;
39502;SDS011;26970;49.900;10.774;2023-05-07T09:06:02;9.13;;;7.63;;
39502;SDS011;26970;49.900;10.774;2023-05-07T09:08:28;10.20;;;7.90;;
39502;SDS011;26970;49.900;10.774;2023-05-07T09:10:54;10.80;;;8.27;;
39502;SDS011;26970;49.900;10.774;2023-05-07T09:13:20;11.35;;;8.73;;
39502;SDS011;26970;49.900;10.774;2023-05-07T09:15:46;9.68;;;7.43;;
39502;SDS011;26970;49.900;10.774;2023-05-07T09:18:12;10.80;;;7.93;;
39502;SDS011;26970;49.900;10.774;2023-05-07T09:20:38;8.35;;;6.85;;
39502;SDS011;26970;49.900;10.774;2023-05-07T09:23:05;9.05;;;6.35;;
39502;SDS011;26970;49.900;10.774;2023-05-07T09:25:32;8.88;;;6.68;;
39502;SDS011;26970;49.900;10.774;2023-05-07T09:27:59;9.68;;;6.80;;
39502;SDS011;26970;49.900;10.774;2023-05-07T09:30:28;7.45;;;6.32;;
39502;SDS011;26970;49.900;10.774;2023-05-07T09:32:57;9.55;;;6.93;;
39502;SDS011;26970;49.900;10.774;2023-05-07T09:35:24;9.45;;;7.25;;
39502;SDS011;26970;49.900;10.774;2023-05-07T09:37:55;8.38;;;5.55;;
39502;SDS011;26970;49.900;10.774;2023-05-07T09:40:23;8.95;;;6.22;;
39502;SDS011;26970;49.900;10.774;2023-05-07T09:42:50;8.05;;;6.55;;
39502;SDS011;26970;49.900;10.774;2023-05-07T09:45:16;10.75;;;6.75;;
39502;SDS011;26970;49.900;10.774;2023-05-07T09:47:57;9.80;;;6.47;;
39502;SDS011;26970;49.900;10.774;2023-05-07T09:50:25;9.70;;;6.28;;
39502;SDS011;26970;49.900;10.774;2023-05-07T09:52:56;10.40;;;6.07;;
39502;SDS011;26970;49.900;10.774;2023-05-07T09:55:23;10.35;;;6.63;;
39502;SDS011;26970;49.900;10.774;2023-05-07T09:57:52;8.15;;;5.97;;
39502;SDS011;26970;49.900;10.774;2023-05-07T10:00:19;8.00;;;6.22;;
39502;SDS011;26970;49.900;10.774;2023-05-07T10:02:46;9.80;;;6.07;;
39502;SDS011;26970;49.900;10.774;2023-05-07T10:05:14;9.20;;;6.50;;
39502;SDS011;26970;49.900;10.774;2023-05-07T10:07:40;8.10;;;6.20;;
39502;SDS011;26970;49.900;10.774;2023-05-07T10:10:06;7.13;;;6.10;;
39502;SDS011;26970;49.900;10.774;2023-05-07T10:12:32;10.45;;;6.63;;
39502;SDS011;26970;49.900;10.774;2023-05-07T10:15:05;6.87;;;5.97;;
39502;SDS011;26970;49.900;10.774;2023-05-07T10:17:34;9.00;;;6.85;;
39502;SDS011;26970;49.900;10.774;2023-05-07T10:20:01;8.95;;;7.18;;
39502;SDS011;26970;49.900;10.774;2023-05-07T10:22:27;8.77;;;6.75;;
39502;SDS011;26970;49.900;10.774;2023-05-07T10:24:56;6.88;;;5.63;;
39502;SDS011;26970;49.900;10.774;2023-05-07T10:27:27;10.38;;;6.20;;
39502;SDS011;26970;49.900;10.774;2023-05-07T10:32:39;7.88;;;6.30;;
39502;SDS011;26970;49.900;10.774;2023-05-07T10:35:10;7.65;;;6.10;;
39502;SDS011;26970;49.900;10.774;2023-05-07T10:37:42;6.93;;;5.70;;
39502;SDS011;26970;49.900;10.774;2023-05-07T10:40:09;7.25;;;5.57;;
39502;SDS011;26970;49.900;10.774;2023-05-07T10:42:36;9.35;;;5.93;;
39502;SDS011;26970;49.900;10.774;2023-05-07T10:45:12;6.25;;;5.15;;
39502;SDS011;26970;49.900;10.774;2023-05-07T10:50:34;6.18;;;5.15;;
39502;SDS011;26970;49.900;10.774;2023-05-07T10:53:34;6.57;;;5.25;;
39502;SDS011;26970;49.900;10.774;2023-05-07T10:56:23;6.80;;;5.82;;
39502;SDS011;26970;49.900;10.774;2023-05-07T10:58:42;10.50;;;5.53;;
39502;SDS011;26970;49.900;10.774;2023-05-07T11:01:07;7.10;;;5.55;;
39502;SDS011;26970;49.900;10.774;2023-05-07T11:03:36;8.88;;;5.68;;
39502;SDS011;26970;49.900;10.774;2023-05-07T11:09:57;6.70;;;5.07;;
39502;SDS011;26970;49.900;10.774;2023-05-07T11:15:01;6.65;;;4.75;;
39502;SDS011;26970;49.900;10.774;2023-05-07T11:17:29;5.68;;;4.60;;
39502;SDS011;26970;49.900;10.774;2023-05-07T11:19:57;7.43;;;4.95;;
39502;SDS011;26970;49.900;10.774;2023-05-07T11:25:01;7.75;;;4.95;;
39502;SDS011;26970;49.900;10.774;2023-05-07T11:27:28;7.75;;;5.07;;
39502;SDS011;26970;49.900;10.774;2023-05-07T11:29:54;6.72;;;4.97;;
39502;SDS011;26970;49.900;10.774;2023-05-07T11:32:28;7.43;;;4.20;;
39502;SDS011;26970;49.900;10.774;2023-05-07T11:34:55;6.78;;;4.90;;
39502;SDS011;26970;49.900;10.774;2023-05-07T11:37:21;6.45;;;4.80;;
39502;SDS011;26970;49.900;10.774;2023-05-07T11:39:48;6.43;;;5.20;;
39502;SDS011;26970;49.900;10.774;2023-05-07T11:42:30;6.38;;;4.78;;
39502;SDS011;26970;49.900;10.774;2023-05-07T11:44:57;6.38;;;4.30;;
39502;SDS011;26970;49.900;10.774;2023-05-07T11:47:23;7.47;;;5.47;;
39502;SDS011;26970;49.900;10.774;2023-05-07T11:49:53;6.40;;;4.18;;
39502;SDS011;26970;49.900;10.774;2023-05-07T11:52:20;6.03;;;4.22;;
39502;SDS011;26970;49.900;10.774;2023-05-07T11:54:51;6.68;;;4.65;;
39502;SDS011;26970;49.900;10.774;2023-05-07T11:57:27;5.43;;;3.85;;
39502;SDS011;26970;49.900;10.774;2023-05-07T11:59:57;6.88;;;4.50;;
39502;SDS011;26970;49.900;10.774;2023-05-07T12:02:24;6.22;;;4.28;;
39502;SDS011;26970;49.900;10.774;2023-05-07T12:04:51;5.78;;;4.40;;
39502;SDS011;26970;49.900;10.774;2023-05-07T12:07:17;6.15;;;4.00;;
39502;SDS011;26970;49.900;10.774;2023-05-07T12:09:46;5.05;;;3.80;;
39502;SDS011;26970;49.900;10.774;2023-05-07T12:12:13;5.47;;;4.28;;
39502;SDS011;26970;49.900;10.774;2023-05-07T12:14:42;5.65;;;4.05;;
39502;SDS011;26970;49.900;10.774;2023-05-07T12:17:09;7.72;;;4.47;;
39502;SDS011;26970;49.900;10.774;2023-05-07T12:19:37;5.82;;;4.13;;
39502;SDS011;26970;49.900;10.774;2023-05-07T12:22:05;6.10;;;4.65;;
39502;SDS011;26970;49.900;10.774;2023-05-07T12:24:45;6.00;;;4.53;;
39502;SDS011;26970;49.900;10.774;2023-05-07T12:27:13;6.93;;;5.03;;
39502;SDS011;26970;49.900;10.774;2023-05-07T12:29:39;6.75;;;4.18;;
39502;SDS011;26970;49.900;10.774;2023-05-07T12:32:12;5.53;;;4.28;;
39502;SDS011;26970;49.900;10.774;2023-05-07T12:34:39;9.90;;;4.55;;
39502;SDS011;26970;49.900;10.774;2023-05-07T12:37:05;5.15;;;3.92;;
39502;SDS011;26970;49.900;10.774;2023-05-07T12:39:31;6.53;;;4.30;;
39502;SDS011;26970;49.900;10.774;2023-05-07T12:41:58;6.43;;;3.70;;
39502;SDS011;26970;49.900;10.774;2023-05-07T12:44:31;7.18;;;4.38;;
39502;SDS011;26970;49.900;10.774;2023-05-07T12:46:58;5.30;;;3.95;;
39502;SDS011;26970;49.900;10.774;2023-05-07T12:49:26;6.30;;;4.28;;
39502;SDS011;26970;49.900;10.774;2023-05-07T12:51:53;6.60;;;4.20;;
39502;SDS011;26970;49.900;10.774;2023-05-07T12:54:28;6.93;;;4.50;;
39502;SDS011;26970;49.900;10.774;2023-05-07T12:57:02;6.65;;;4.63;;
39502;SDS011;26970;49.900;10.774;2023-05-07T12:59:35;6.63;;;4.30;;
39502;SDS011;26970;49.900;10.774;2023-05-07T13:02:02;5.85;;;4.45;;
39502;SDS011;26970;49.900;10.774;2023-05-07T13:04:28;8.07;;;3.80;;
39502;SDS011;26970;49.900;10.774;2023-05-07T13:06:54;7.30;;;4.40;;
39502;SDS011;26970;49.900;10.774;2023-05-07T13:09:20;6.10;;;3.90;;
39502;SDS011;26970;49.900;10.774;2023-05-07T13:11:45;6.35;;;4.07;;
39502;SDS011;26970;49.900;10.774;2023-05-07T13:14:11;5.07;;;3.97;;
39502;SDS011;26970;49.900;10.774;2023-05-07T13:16:37;5.93;;;4.20;;
39502;SDS011;26970;49.900;10.774;2023-05-07T13:19:02;7.20;;;4.40;;
39502;SDS011;26970;49.900;10.774;2023-05-07T13:21:29;6.80;;;4.22;;
39502;SDS011;26970;49.900;10.774;2023-05-07T13:23:56;7.10;;;3.80;;
39502;SDS011;26970;49.900;10.774;2023-05-07T13:26:23;5.57;;;3.90;;
39502;SDS011;26970;49.900;10.774;2023-05-07T13:28:48;6.40;;;4.25;;
39502;SDS011;26970;49.900;10.774;2023-05-07T13:31:14;5.95;;;4.22;;
39502;SDS011;26970;49.900;10.774;2023-05-07T13:33:40;6.13;;;3.67;;
39502;SDS011;26970;49.900;10.774;2023-05-07T13:36:05;5.32;;;3.70;;
39502;SDS011;26970;49.900;10.774;2023-05-07T13:38:31;9.30;;;4.25;;
39502;SDS011;26970;49.900;10.774;2023-05-07T13:40:57;6.68;;;4.38;;
39502;SDS011;26970;49.900;10.774;2023-05-07T13:43:22;6.03;;;3.90;;
39502;SDS011;26970;49.900;10.774;2023-05-07T13:45:49;5.38;;;3.97;;
39502;SDS011;26970;49.900;10.774;2023-05-07T13:48:15;6.50;;;4.30;;
39502;SDS011;26970;49.900;10.774;2023-05-07T13:50:40;5.38;;;4.15;;
39502;SDS011;26970;49.900;10.774;2023-05-07T13:53:07;6.07;;;4.05;;
39502;SDS011;26970;49.900;10.774;2023-05-07T13:55:36;6.38;;;3.85;;
39502;SDS011;26970;49.900;10.774;2023-05-07T13:58:01;6.55;;;4.13;;
39502;SDS011;26970;49.900;10.774;2023-05-07T14:00:28;8.02;;;4.50;;
39502;SDS011;26970;49.900;10.774;2023-05-07T14:02:54;5.63;;;4.28;;
39502;SDS011;26970;49.900;10.774;2023-05-07T14:05:21;5.10;;;3.70;;
39502;SDS011;26970;49.900;10.774;2023-05-07T14:07:48;7.32;;;3.92;;
39502;SDS011;26970;49.900;10.774;2023-05-07T14:10:16;8.32;;;4.50;;
39502;SDS011;26970;49.900;10.774;2023-05-07T14:12:43;6.32;;;3.97;;
39502;SDS011;26970;49.900;10.774;2023-05-07T14:15:10;6.03;;;3.50;;
39502;SDS011;26970;49.900;10.774;2023-05-07T14:17:35;5.82;;;4.07;;
39502;SDS011;26970;49.900;10.774;2023-05-07T14:20:02;5.18;;;3.45;;
39502;SDS011;26970;49.900;10.774;2023-05-07T14:22:27;4.85;;;3.70;;
39502;SDS011;26970;49.900;10.774;2023-05-07T14:24:53;5.20;;;3.85;;
39502;SDS011;26970;49.900;10.774;2023-05-07T14:27:19;5.18;;;3.78;;
39502;SDS011;26970;49.900;10.774;2023-05-07T14:29:44;5.97;;;3.80;;
39502;SDS011;26970;49.900;10.774;2023-05-07T14:32:10;6.25;;;3.67;;
39502;SDS011;26970;49.900;10.774;2023-05-07T14:34:36;5.32;;;3.70;;
39502;SDS011;26970;49.900;10.774;2023-05-07T14:37:02;4.93;;;3.65;;
39502;SDS011;26970;49.900;10.774;2023-05-07T14:39:28;5.78;;;3.53;;
39502;SDS011;26970;49.900;10.774;2023-05-07T14:41:54;5.32;;;3.60;;